sensor_id;sensor_type;location;lat;lon;timestamp;P1;durP1;ratioP1;P2;durP2;ratioP2
16354;SDS011;8287;51.644;8.494;2023-01-29T00:00:06;39.28;;;35.85;;
16354;SDS011;8287;51.644;8.494;2023-01-29T00:02:34;39.78;;;36.47;;
16354;SDS011;8287;51.644;8.494;2023-01-29T00:05:01;39.65;;;35.80;;
16354;SDS011;8287;51.644;8.494;2023-01-29T00:07:28;39.45;;;35.95;;
16354;SDS011;8287;51.644;8.494;2023-01-29T00:09:55;37.85;;;34.58;;
16354;SDS011;8287;51.644;8.494;2023-01-29T00:12:21;39.40;;;35.63;;
16354;SDS011;8287;51.644;8.494;2023-01-29T00:14:48;38.13;;;34.58;;
16354;SDS011;8287;51.644;8.494;2023-01-29T00:17:16;37.97;;;34.58;;
16354;SDS011;8287;51.644;8.494;2023-01-29T00:19:42;37.28;;;33.92;;
16354;SDS011;8287;51.644;8.494;2023-01-29T00:22:09;37.47;;;33.80;;
16354;SDS011;8287;51.644;8.494;2023-01-29T00:24:35;39.10;;;35.35;;
16354;SDS011;8287;51.644;8.494;2023-01-29T00:27:02;39.72;;;36.20;;
16354;SDS011;8287;51.644;8.494;2023-01-29T00:29:30;43.70;;;40.13;;
16354;SDS011;8287;51.644;8.494;2023-01-29T00:31:56;37.75;;;34.38;;
16354;SDS011;8287;51.644;8.494;2023-01-29T00:34:24;36.58;;;33.38;;
16354;SDS011;8287;51.644;8.494;2023-01-29T00:36:51;42.10;;;38.65;;
16354;SDS011;8287;51.644;8.494;2023-01-29T00:39:29;40.60;;;37.30;;
16354;SDS011;8287;51.644;8.494;2023-01-29T00:42:02;46.45;;;42.70;;
16354;SDS011;8287;51.644;8.494;2023-01-29T00:44:46;45.40;;;41.65;;
16354;SDS011;8287;51.644;8.494;2023-01-29T00:47:24;44.05;;;40.63;;
16354;SDS011;8287;51.644;8.494;2023-01-29T00:49:59;42.72;;;39.40;;
16354;SDS011;8287;51.644;8.494;2023-01-29T00:52:26;42.10;;;38.78;;
16354;SDS011;8287;51.644;8.494;2023-01-29T00:54:54;43.35;;;39.97;;
16354;SDS011;8287;51.644;8.494;2023-01-29T00:57:22;38.17;;;35.20;;
16354;SDS011;8287;51.644;8.494;2023-01-29T00:59:49;47.42;;;43.83;;
16354;SDS011;8287;51.644;8.494;2023-01-29T01:02:16;42.63;;;39.30;;
16354;SDS011;8287;51.644;8.494;2023-01-29T01:05:02;41.03;;;38.30;;
16354;SDS011;8287;51.644;8.494;2023-01-29T01:07:31;43.60;;;40.30;;
16354;SDS011;8287;51.644;8.494;2023-01-29T01:09:58;46.35;;;42.70;;
16354;SDS011;8287;51.644;8.494;2023-01-29T01:12:43;40.92;;;37.60;;
16354;SDS011;8287;51.644;8.494;2023-01-29T01:15:09;41.75;;;37.70;;
16354;SDS011;8287;51.644;8.494;2023-01-29T01:17:36;37.92;;;35.05;;
16354;SDS011;8287;51.644;8.494;2023-01-29T01:20:04;38.75;;;35.47;;
16354;SDS011;8287;51.644;8.494;2023-01-29T01:22:31;41.10;;;37.72;;
16354;SDS011;8287;51.644;8.494;2023-01-29T01:24:58;43.30;;;40.15;;
16354;SDS011;8287;51.644;8.494;2023-01-29T01:27:24;38.55;;;35.50;;
16354;SDS011;8287;51.644;8.494;2023-01-29T01:29:51;47.22;;;42.92;;
16354;SDS011;8287;51.644;8.494;2023-01-29T01:32:17;42.35;;;39.05;;
16354;SDS011;8287;51.644;8.494;2023-01-29T01:34:44;43.38;;;40.08;;
16354;SDS011;8287;51.644;8.494;2023-01-29T01:37:12;43.35;;;39.83;;
16354;SDS011;8287;51.644;8.494;2023-01-29T01:39:39;42.92;;;39.88;;
16354;SDS011;8287;51.644;8.494;2023-01-29T01:42:08;45.80;;;42.42;;
16354;SDS011;8287;51.644;8.494;2023-01-29T01:44:51;44.70;;;40.90;;
16354;SDS011;8287;51.644;8.494;2023-01-29T01:47:20;42.90;;;39.65;;
16354;SDS011;8287;51.644;8.494;2023-01-29T01:49:50;43.97;;;40.88;;
16354;SDS011;8287;51.644;8.494;2023-01-29T01:52:18;44.15;;;40.67;;
16354;SDS011;8287;51.644;8.494;2023-01-29T01:54:46;44.88;;;40.78;;
16354;SDS011;8287;51.644;8.494;2023-01-29T01:57:15;45.88;;;42.63;;
16354;SDS011;8287;51.644;8.494;2023-01-29T01:59:50;46.67;;;42.80;;
16354;SDS011;8287;51.644;8.494;2023-01-29T02:02:21;49.53;;;45.65;;
16354;SDS011;8287;51.644;8.494;2023-01-29T02:05:06;46.85;;;43.15;;
16354;SDS011;8287;51.644;8.494;2023-01-29T02:07:52;48.78;;;44.92;;
16354;SDS011;8287;51.644;8.494;2023-01-29T02:10:38;46.67;;;43.13;;
16354;SDS011;8287;51.644;8.494;2023-01-29T02:13:07;47.42;;;43.45;;
16354;SDS011;8287;51.644;8.494;2023-01-29T02:15:34;49.03;;;44.58;;
16354;SDS011;8287;51.644;8.494;2023-01-29T02:18:01;46.95;;;43.55;;
16354;SDS011;8287;51.644;8.494;2023-01-29T02:20:29;47.58;;;43.17;;
16354;SDS011;8287;51.644;8.494;2023-01-29T02:23:06;46.05;;;42.10;;
16354;SDS011;8287;51.644;8.494;2023-01-29T02:26:03;47.47;;;43.78;;
16354;SDS011;8287;51.644;8.494;2023-01-29T02:28:43;50.88;;;46.85;;
16354;SDS011;8287;51.644;8.494;2023-01-29T02:31:20;50.90;;;46.60;;
16354;SDS011;8287;51.644;8.494;2023-01-29T02:33:54;48.33;;;44.17;;
16354;SDS011;8287;51.644;8.494;2023-01-29T02:36:30;48.50;;;44.63;;
16354;SDS011;8287;51.644;8.494;2023-01-29T02:39:04;49.28;;;45.63;;
16354;SDS011;8287;51.644;8.494;2023-01-29T02:41:41;51.10;;;46.83;;
16354;SDS011;8287;51.644;8.494;2023-01-29T02:44:15;50.53;;;46.20;;
16354;SDS011;8287;51.644;8.494;2023-01-29T02:46:50;47.00;;;43.40;;
16354;SDS011;8287;51.644;8.494;2023-01-29T02:49:26;49.47;;;45.88;;
16354;SDS011;8287;51.644;8.494;2023-01-29T02:52:00;52.22;;;48.17;;
16354;SDS011;8287;51.644;8.494;2023-01-29T02:54:36;55.53;;;50.72;;
16354;SDS011;8287;51.644;8.494;2023-01-29T02:57:09;45.70;;;42.05;;
16354;SDS011;8287;51.644;8.494;2023-01-29T02:59:43;50.28;;;45.42;;
16354;SDS011;8287;51.644;8.494;2023-01-29T03:02:14;46.40;;;42.65;;
16354;SDS011;8287;51.644;8.494;2023-01-29T03:04:45;47.65;;;44.08;;
16354;SDS011;8287;51.644;8.494;2023-01-29T03:07:16;48.45;;;44.58;;
16354;SDS011;8287;51.644;8.494;2023-01-29T03:10:02;49.92;;;46.15;;
16354;SDS011;8287;51.644;8.494;2023-01-29T03:12:32;46.25;;;42.78;;
16354;SDS011;8287;51.644;8.494;2023-01-29T03:15:06;47.20;;;43.78;;
16354;SDS011;8287;51.644;8.494;2023-01-29T03:17:39;45.97;;;42.58;;
16354;SDS011;8287;51.644;8.494;2023-01-29T03:20:10;47.97;;;43.83;;
16354;SDS011;8287;51.644;8.494;2023-01-29T03:22:43;45.72;;;42.67;;
16354;SDS011;8287;51.644;8.494;2023-01-29T03:25:14;47.38;;;44.42;;
16354;SDS011;8287;51.644;8.494;2023-01-29T03:28:03;46.53;;;43.10;;
16354;SDS011;8287;51.644;8.494;2023-01-29T03:30:51;45.58;;;42.47;;
16354;SDS011;8287;51.644;8.494;2023-01-29T03:33:39;48.28;;;45.17;;
16354;SDS011;8287;51.644;8.494;2023-01-29T03:36:10;46.13;;;43.13;;
16354;SDS011;8287;51.644;8.494;2023-01-29T03:38:42;46.45;;;42.75;;
16354;SDS011;8287;51.644;8.494;2023-01-29T03:41:12;58.38;;;54.33;;
16354;SDS011;8287;51.644;8.494;2023-01-29T03:43:44;49.50;;;45.75;;
16354;SDS011;8287;51.644;8.494;2023-01-29T03:46:19;51.47;;;48.13;;
16354;SDS011;8287;51.644;8.494;2023-01-29T03:48:53;54.63;;;50.75;;
16354;SDS011;8287;51.644;8.494;2023-01-29T03:51:24;55.03;;;51.35;;
16354;SDS011;8287;51.644;8.494;2023-01-29T03:53:56;55.30;;;51.63;;
16354;SDS011;8287;51.644;8.494;2023-01-29T03:56:33;55.65;;;51.65;;
16354;SDS011;8287;51.644;8.494;2023-01-29T03:59:18;63.13;;;59.17;;
16354;SDS011;8287;51.644;8.494;2023-01-29T04:01:53;61.03;;;56.92;;
16354;SDS011;8287;51.644;8.494;2023-01-29T04:04:22;61.35;;;57.47;;
16354;SDS011;8287;51.644;8.494;2023-01-29T04:06:51;60.45;;;56.45;;
16354;SDS011;8287;51.644;8.494;2023-01-29T04:09:24;61.92;;;58.08;;
16354;SDS011;8287;51.644;8.494;2023-01-29T04:11:58;57.25;;;53.65;;
16354;SDS011;8287;51.644;8.494;2023-01-29T04:14:29;59.65;;;55.45;;
16354;SDS011;8287;51.644;8.494;2023-01-29T04:16:59;56.70;;;53.22;;
16354;SDS011;8287;51.644;8.494;2023-01-29T04:19:28;59.40;;;55.03;;
16354;SDS011;8287;51.644;8.494;2023-01-29T04:21:58;54.28;;;50.35;;
16354;SDS011;8287;51.644;8.494;2023-01-29T04:24:28;52.20;;;48.42;;
16354;SDS011;8287;51.644;8.494;2023-01-29T04:26:57;49.88;;;46.05;;
16354;SDS011;8287;51.644;8.494;2023-01-29T04:29:43;56.00;;;52.13;;
16354;SDS011;8287;51.644;8.494;2023-01-29T04:32:23;44.20;;;40.58;;
16354;SDS011;8287;51.644;8.494;2023-01-29T04:34:57;52.90;;;49.40;;
16354;SDS011;8287;51.644;8.494;2023-01-29T04:37:30;44.47;;;40.78;;
16354;SDS011;8287;51.644;8.494;2023-01-29T04:40:03;49.92;;;46.63;;
16354;SDS011;8287;51.644;8.494;2023-01-29T04:42:41;49.05;;;45.08;;
16354;SDS011;8287;51.644;8.494;2023-01-29T04:45:15;54.60;;;50.78;;
16354;SDS011;8287;51.644;8.494;2023-01-29T04:47:49;46.53;;;43.15;;
16354;SDS011;8287;51.644;8.494;2023-01-29T04:50:25;51.60;;;47.58;;
16354;SDS011;8287;51.644;8.494;2023-01-29T04:52:55;46.58;;;43.67;;
16354;SDS011;8287;51.644;8.494;2023-01-29T04:55:27;48.58;;;45.63;;
16354;SDS011;8287;51.644;8.494;2023-01-29T04:58:02;42.55;;;39.13;;
16354;SDS011;8287;51.644;8.494;2023-01-29T05:00:36;46.00;;;42.58;;
16354;SDS011;8287;51.644;8.494;2023-01-29T05:03:07;42.55;;;39.28;;
16354;SDS011;8287;51.644;8.494;2023-01-29T05:05:35;45.85;;;42.33;;
16354;SDS011;8287;51.644;8.494;2023-01-29T05:08:05;45.92;;;42.53;;
16354;SDS011;8287;51.644;8.494;2023-01-29T05:10:32;44.35;;;40.92;;
16354;SDS011;8287;51.644;8.494;2023-01-29T05:13:02;45.15;;;41.70;;
16354;SDS011;8287;51.644;8.494;2023-01-29T05:15:32;48.83;;;45.25;;
16354;SDS011;8287;51.644;8.494;2023-01-29T05:18:03;43.58;;;40.33;;
16354;SDS011;8287;51.644;8.494;2023-01-29T05:20:34;43.75;;;40.33;;
16354;SDS011;8287;51.644;8.494;2023-01-29T05:23:03;60.05;;;56.05;;
16354;SDS011;8287;51.644;8.494;2023-01-29T05:25:30;53.13;;;49.30;;
16354;SDS011;8287;51.644;8.494;2023-01-29T05:27:59;55.55;;;51.63;;
16354;SDS011;8287;51.644;8.494;2023-01-29T05:30:33;60.20;;;56.40;;
16354;SDS011;8287;51.644;8.494;2023-01-29T05:33:01;58.72;;;55.10;;
16354;SDS011;8287;51.644;8.494;2023-01-29T05:35:29;55.35;;;51.20;;
16354;SDS011;8287;51.644;8.494;2023-01-29T05:37:57;59.35;;;55.20;;
16354;SDS011;8287;51.644;8.494;2023-01-29T05:40:24;60.70;;;57.00;;
16354;SDS011;8287;51.644;8.494;2023-01-29T05:42:50;55.08;;;51.35;;
16354;SDS011;8287;51.644;8.494;2023-01-29T05:45:17;63.13;;;59.10;;
16354;SDS011;8287;51.644;8.494;2023-01-29T05:47:44;65.50;;;61.28;;
16354;SDS011;8287;51.644;8.494;2023-01-29T05:50:12;63.42;;;59.05;;
16354;SDS011;8287;51.644;8.494;2023-01-29T05:52:39;64.72;;;60.47;;
16354;SDS011;8287;51.644;8.494;2023-01-29T05:55:08;65.53;;;61.47;;
16354;SDS011;8287;51.644;8.494;2023-01-29T05:57:35;67.47;;;63.20;;
16354;SDS011;8287;51.644;8.494;2023-01-29T06:00:03;65.03;;;60.78;;
16354;SDS011;8287;51.644;8.494;2023-01-29T06:02:31;68.85;;;64.93;;
16354;SDS011;8287;51.644;8.494;2023-01-29T06:04:57;62.17;;;58.28;;
16354;SDS011;8287;51.644;8.494;2023-01-29T06:07:24;58.22;;;54.47;;
16354;SDS011;8287;51.644;8.494;2023-01-29T06:09:50;64.65;;;60.45;;
16354;SDS011;8287;51.644;8.494;2023-01-29T06:12:18;39.42;;;36.40;;
16354;SDS011;8287;51.644;8.494;2023-01-29T06:14:45;39.97;;;36.65;;
16354;SDS011;8287;51.644;8.494;2023-01-29T06:17:11;44.08;;;40.35;;
16354;SDS011;8287;51.644;8.494;2023-01-29T06:19:38;56.67;;;52.95;;
16354;SDS011;8287;51.644;8.494;2023-01-29T06:22:05;59.50;;;55.25;;
16354;SDS011;8287;51.644;8.494;2023-01-29T06:24:31;66.85;;;62.17;;
16354;SDS011;8287;51.644;8.494;2023-01-29T06:26:58;40.85;;;37.78;;
16354;SDS011;8287;51.644;8.494;2023-01-29T06:29:26;65.30;;;60.90;;
16354;SDS011;8287;51.644;8.494;2023-01-29T06:31:52;60.83;;;56.67;;
16354;SDS011;8287;51.644;8.494;2023-01-29T06:34:19;52.70;;;49.38;;
16354;SDS011;8287;51.644;8.494;2023-01-29T06:36:45;50.30;;;46.60;;
16354;SDS011;8287;51.644;8.494;2023-01-29T06:39:12;49.75;;;46.53;;
16354;SDS011;8287;51.644;8.494;2023-01-29T06:41:38;53.25;;;49.47;;
16354;SDS011;8287;51.644;8.494;2023-01-29T06:44:05;73.45;;;68.70;;
16354;SDS011;8287;51.644;8.494;2023-01-29T06:46:33;70.75;;;66.10;;
16354;SDS011;8287;51.644;8.494;2023-01-29T06:48:59;62.95;;;58.78;;
16354;SDS011;8287;51.644;8.494;2023-01-29T06:51:26;63.25;;;58.78;;
16354;SDS011;8287;51.644;8.494;2023-01-29T06:53:53;73.30;;;68.45;;
16354;SDS011;8287;51.644;8.494;2023-01-29T06:56:20;70.93;;;66.57;;
16354;SDS011;8287;51.644;8.494;2023-01-29T06:58:47;74.70;;;69.88;;
16354;SDS011;8287;51.644;8.494;2023-01-29T07:01:14;64.22;;;60.05;;
16354;SDS011;8287;51.644;8.494;2023-01-29T07:03:42;61.85;;;57.60;;
16354;SDS011;8287;51.644;8.494;2023-01-29T07:06:09;62.63;;;58.40;;
16354;SDS011;8287;51.644;8.494;2023-01-29T07:08:35;58.05;;;54.17;;
16354;SDS011;8287;51.644;8.494;2023-01-29T07:11:02;51.40;;;47.67;;
16354;SDS011;8287;51.644;8.494;2023-01-29T07:13:29;48.17;;;44.95;;
16354;SDS011;8287;51.644;8.494;2023-01-29T07:15:56;61.95;;;58.17;;
16354;SDS011;8287;51.644;8.494;2023-01-29T07:18:23;58.22;;;53.97;;
16354;SDS011;8287;51.644;8.494;2023-01-29T07:20:51;57.08;;;52.78;;
16354;SDS011;8287;51.644;8.494;2023-01-29T07:23:18;54.83;;;50.80;;
16354;SDS011;8287;51.644;8.494;2023-01-29T07:25:44;57.75;;;53.13;;
16354;SDS011;8287;51.644;8.494;2023-01-29T07:28:13;40.53;;;36.85;;
16354;SDS011;8287;51.644;8.494;2023-01-29T07:30:40;55.72;;;51.60;;
16354;SDS011;8287;51.644;8.494;2023-01-29T07:33:07;41.63;;;38.15;;
16354;SDS011;8287;51.644;8.494;2023-01-29T07:35:35;45.53;;;41.95;;
16354;SDS011;8287;51.644;8.494;2023-01-29T07:38:04;42.65;;;39.22;;
16354;SDS011;8287;51.644;8.494;2023-01-29T07:40:31;42.10;;;38.63;;
16354;SDS011;8287;51.644;8.494;2023-01-29T07:42:58;42.45;;;39.05;;
16354;SDS011;8287;51.644;8.494;2023-01-29T07:45:25;44.80;;;40.83;;
16354;SDS011;8287;51.644;8.494;2023-01-29T07:47:52;45.10;;;41.38;;
16354;SDS011;8287;51.644;8.494;2023-01-29T07:50:19;41.03;;;37.30;;
16354;SDS011;8287;51.644;8.494;2023-01-29T07:52:46;40.92;;;37.42;;
16354;SDS011;8287;51.644;8.494;2023-01-29T07:55:14;41.80;;;38.45;;
16354;SDS011;8287;51.644;8.494;2023-01-29T07:57:41;43.83;;;39.83;;
16354;SDS011;8287;51.644;8.494;2023-01-29T08:00:08;42.92;;;39.53;;
16354;SDS011;8287;51.644;8.494;2023-01-29T08:02:36;42.67;;;39.15;;
16354;SDS011;8287;51.644;8.494;2023-01-29T08:05:03;40.83;;;37.08;;
16354;SDS011;8287;51.644;8.494;2023-01-29T08:07:30;43.58;;;39.90;;
16354;SDS011;8287;51.644;8.494;2023-01-29T08:09:56;40.97;;;37.55;;
16354;SDS011;8287;51.644;8.494;2023-01-29T08:12:24;45.55;;;41.95;;
16354;SDS011;8287;51.644;8.494;2023-01-29T08:14:51;43.38;;;39.67;;
16354;SDS011;8287;51.644;8.494;2023-01-29T08:17:17;42.25;;;38.78;;
16354;SDS011;8287;51.644;8.494;2023-01-29T08:19:44;45.08;;;41.55;;
16354;SDS011;8287;51.644;8.494;2023-01-29T08:22:10;43.13;;;39.55;;
16354;SDS011;8287;51.644;8.494;2023-01-29T08:24:39;45.22;;;41.50;;
16354;SDS011;8287;51.644;8.494;2023-01-29T08:27:06;46.05;;;42.45;;
16354;SDS011;8287;51.644;8.494;2023-01-29T08:29:33;46.05;;;41.95;;
16354;SDS011;8287;51.644;8.494;2023-01-29T08:32:00;40.58;;;37.17;;
16354;SDS011;8287;51.644;8.494;2023-01-29T08:34:27;40.67;;;37.42;;
16354;SDS011;8287;51.644;8.494;2023-01-29T08:36:54;43.17;;;40.00;;
16354;SDS011;8287;51.644;8.494;2023-01-29T08:39:20;42.83;;;39.05;;
16354;SDS011;8287;51.644;8.494;2023-01-29T08:41:47;42.50;;;38.97;;
16354;SDS011;8287;51.644;8.494;2023-01-29T08:44:14;42.30;;;38.83;;
16354;SDS011;8287;51.644;8.494;2023-01-29T08:46:42;42.90;;;39.88;;
16354;SDS011;8287;51.644;8.494;2023-01-29T08:49:08;43.30;;;39.60;;
16354;SDS011;8287;51.644;8.494;2023-01-29T08:51:36;44.58;;;40.78;;
16354;SDS011;8287;51.644;8.494;2023-01-29T08:54:02;46.30;;;42.90;;
16354;SDS011;8287;51.644;8.494;2023-01-29T08:56:29;54.67;;;50.10;;
16354;SDS011;8287;51.644;8.494;2023-01-29T08:58:55;42.40;;;38.78;;
16354;SDS011;8287;51.644;8.494;2023-01-29T09:01:22;47.20;;;43.55;;
16354;SDS011;8287;51.644;8.494;2023-01-29T09:03:50;51.00;;;47.38;;
16354;SDS011;8287;51.644;8.494;2023-01-29T09:06:17;44.53;;;40.83;;
16354;SDS011;8287;51.644;8.494;2023-01-29T09:08:44;44.10;;;40.75;;
16354;SDS011;8287;51.644;8.494;2023-01-29T09:11:10;47.55;;;43.13;;
16354;SDS011;8287;51.644;8.494;2023-01-29T09:13:37;51.63;;;46.50;;
16354;SDS011;8287;51.644;8.494;2023-01-29T09:16:04;48.25;;;44.10;;
16354;SDS011;8287;51.644;8.494;2023-01-29T09:18:31;51.92;;;46.92;;
16354;SDS011;8287;51.644;8.494;2023-01-29T09:20:59;47.72;;;43.60;;
16354;SDS011;8287;51.644;8.494;2023-01-29T09:23:27;42.40;;;39.03;;
16354;SDS011;8287;51.644;8.494;2023-01-29T09:25:54;40.85;;;37.75;;
16354;SDS011;8287;51.644;8.494;2023-01-29T09:28:21;44.75;;;40.83;;
16354;SDS011;8287;51.644;8.494;2023-01-29T09:30:47;41.05;;;37.53;;
16354;SDS011;8287;51.644;8.494;2023-01-29T09:33:14;44.03;;;40.00;;
16354;SDS011;8287;51.644;8.494;2023-01-29T09:35:41;41.80;;;38.45;;
16354;SDS011;8287;51.644;8.494;2023-01-29T09:38:12;46.78;;;42.58;;
16354;SDS011;8287;51.644;8.494;2023-01-29T09:40:40;45.95;;;42.10;;
16354;SDS011;8287;51.644;8.494;2023-01-29T09:43:16;50.65;;;46.38;;
16354;SDS011;8287;51.644;8.494;2023-01-29T09:45:49;46.92;;;42.95;;
16354;SDS011;8287;51.644;8.494;2023-01-29T09:48:19;44.90;;;41.25;;
16354;SDS011;8287;51.644;8.494;2023-01-29T09:50:50;43.08;;;39.85;;
16354;SDS011;8287;51.644;8.494;2023-01-29T09:53:23;41.65;;;37.95;;
16354;SDS011;8287;51.644;8.494;2023-01-29T09:55:57;44.00;;;40.63;;
16354;SDS011;8287;51.644;8.494;2023-01-29T09:58:28;40.03;;;36.85;;
16354;SDS011;8287;51.644;8.494;2023-01-29T10:01:00;39.35;;;36.33;;
16354;SDS011;8287;51.644;8.494;2023-01-29T10:03:42;40.47;;;37.38;;
16354;SDS011;8287;51.644;8.494;2023-01-29T10:06:22;40.50;;;37.67;;
16354;SDS011;8287;51.644;8.494;2023-01-29T10:12:23;42.00;;;38.50;;
16354;SDS011;8287;51.644;8.494;2023-01-29T10:15:04;50.58;;;46.75;;
16354;SDS011;8287;51.644;8.494;2023-01-29T10:17:48;65.93;;;61.28;;
16354;SDS011;8287;51.644;8.494;2023-01-29T10:23:15;41.67;;;38.35;;
16354;SDS011;8287;51.644;8.494;2023-01-29T10:25:55;43.00;;;39.80;;
16354;SDS011;8287;51.644;8.494;2023-01-29T10:28:24;39.58;;;36.35;;
16354;SDS011;8287;51.644;8.494;2023-01-29T10:30:56;49.45;;;45.03;;
16354;SDS011;8287;51.644;8.494;2023-01-29T10:33:27;38.20;;;35.30;;
16354;SDS011;8287;51.644;8.494;2023-01-29T10:36:00;44.75;;;40.92;;
16354;SDS011;8287;51.644;8.494;2023-01-29T10:38:37;39.83;;;36.67;;
16354;SDS011;8287;51.644;8.494;2023-01-29T10:41:20;39.53;;;36.38;;
16354;SDS011;8287;51.644;8.494;2023-01-29T10:44:03;38.22;;;35.15;;
16354;SDS011;8287;51.644;8.494;2023-01-29T10:46:44;41.22;;;37.78;;
16354;SDS011;8287;51.644;8.494;2023-01-29T10:49:40;35.55;;;32.85;;
16354;SDS011;8287;51.644;8.494;2023-01-29T10:52:29;42.70;;;39.25;;
16354;SDS011;8287;51.644;8.494;2023-01-29T10:55:10;37.88;;;34.78;;
16354;SDS011;8287;51.644;8.494;2023-01-29T10:57:51;41.35;;;38.10;;
16354;SDS011;8287;51.644;8.494;2023-01-29T11:00:32;41.53;;;37.70;;
16354;SDS011;8287;51.644;8.494;2023-01-29T11:03:07;38.13;;;35.20;;
16354;SDS011;8287;51.644;8.494;2023-01-29T11:05:41;38.20;;;35.08;;
16354;SDS011;8287;51.644;8.494;2023-01-29T11:08:15;37.10;;;33.90;;
16354;SDS011;8287;51.644;8.494;2023-01-29T11:10:47;41.95;;;37.72;;
16354;SDS011;8287;51.644;8.494;2023-01-29T11:13:24;41.22;;;38.10;;
16354;SDS011;8287;51.644;8.494;2023-01-29T11:15:56;43.45;;;40.33;;
16354;SDS011;8287;51.644;8.494;2023-01-29T11:18:22;43.65;;;40.45;;
16354;SDS011;8287;51.644;8.494;2023-01-29T11:20:58;38.45;;;35.30;;
16354;SDS011;8287;51.644;8.494;2023-01-29T11:23:27;40.05;;;37.05;;
16354;SDS011;8287;51.644;8.494;2023-01-29T11:25:56;39.88;;;36.47;;
16354;SDS011;8287;51.644;8.494;2023-01-29T11:28:34;42.95;;;39.42;;
16354;SDS011;8287;51.644;8.494;2023-01-29T11:31:15;41.05;;;37.58;;
16354;SDS011;8287;51.644;8.494;2023-01-29T11:33:44;46.25;;;42.58;;
16354;SDS011;8287;51.644;8.494;2023-01-29T11:36:23;39.58;;;36.67;;
16354;SDS011;8287;51.644;8.494;2023-01-29T11:39:12;41.45;;;38.42;;
16354;SDS011;8287;51.644;8.494;2023-01-29T11:41:44;39.55;;;36.22;;
16354;SDS011;8287;51.644;8.494;2023-01-29T11:44:17;36.83;;;34.28;;
16354;SDS011;8287;51.644;8.494;2023-01-29T11:46:46;39.88;;;36.80;;
16354;SDS011;8287;51.644;8.494;2023-01-29T11:49:19;46.45;;;43.25;;
16354;SDS011;8287;51.644;8.494;2023-01-29T11:51:51;41.05;;;37.78;;
16354;SDS011;8287;51.644;8.494;2023-01-29T11:54:26;40.45;;;37.50;;
16354;SDS011;8287;51.644;8.494;2023-01-29T11:56:56;44.28;;;40.90;;
16354;SDS011;8287;51.644;8.494;2023-01-29T11:59:29;42.47;;;39.53;;
16354;SDS011;8287;51.644;8.494;2023-01-29T12:02:05;42.80;;;39.75;;
16354;SDS011;8287;51.644;8.494;2023-01-29T12:04:42;42.35;;;39.58;;
16354;SDS011;8287;51.644;8.494;2023-01-29T12:07:10;43.08;;;40.28;;
16354;SDS011;8287;51.644;8.494;2023-01-29T12:09:39;44.15;;;40.85;;
16354;SDS011;8287;51.644;8.494;2023-01-29T12:12:16;45.72;;;42.28;;
16354;SDS011;8287;51.644;8.494;2023-01-29T12:15:00;39.95;;;37.13;;
16354;SDS011;8287;51.644;8.494;2023-01-29T12:17:31;43.80;;;40.58;;
16354;SDS011;8287;51.644;8.494;2023-01-29T12:20:03;47.03;;;43.80;;
16354;SDS011;8287;51.644;8.494;2023-01-29T12:22:39;42.40;;;39.30;;
16354;SDS011;8287;51.644;8.494;2023-01-29T12:25:15;44.53;;;41.72;;
16354;SDS011;8287;51.644;8.494;2023-01-29T12:27:47;43.40;;;40.35;;
16354;SDS011;8287;51.644;8.494;2023-01-29T12:30:21;44.75;;;41.75;;
16354;SDS011;8287;51.644;8.494;2023-01-29T12:32:55;40.53;;;37.83;;
16354;SDS011;8287;51.644;8.494;2023-01-29T12:35:29;42.65;;;39.75;;
16354;SDS011;8287;51.644;8.494;2023-01-29T12:37:59;44.47;;;41.20;;
16354;SDS011;8287;51.644;8.494;2023-01-29T12:40:30;45.20;;;42.00;;
16354;SDS011;8287;51.644;8.494;2023-01-29T12:43:05;42.92;;;39.88;;
16354;SDS011;8287;51.644;8.494;2023-01-29T12:45:40;37.25;;;34.53;;
16354;SDS011;8287;51.644;8.494;2023-01-29T12:48:11;45.90;;;42.47;;
16354;SDS011;8287;51.644;8.494;2023-01-29T12:50:39;39.13;;;36.42;;
16354;SDS011;8287;51.644;8.494;2023-01-29T12:53:09;48.85;;;45.47;;
16354;SDS011;8287;51.644;8.494;2023-01-29T12:55:49;44.03;;;40.97;;
16354;SDS011;8287;51.644;8.494;2023-01-29T12:58:20;40.58;;;38.13;;
16354;SDS011;8287;51.644;8.494;2023-01-29T13:00:53;43.45;;;40.17;;
16354;SDS011;8287;51.644;8.494;2023-01-29T13:03:23;46.42;;;43.20;;
16354;SDS011;8287;51.644;8.494;2023-01-29T13:05:55;44.78;;;42.00;;
16354;SDS011;8287;51.644;8.494;2023-01-29T13:08:25;48.85;;;45.25;;
16354;SDS011;8287;51.644;8.494;2023-01-29T13:10:58;42.78;;;39.78;;
16354;SDS011;8287;51.644;8.494;2023-01-29T13:13:30;46.42;;;42.90;;
16354;SDS011;8287;51.644;8.494;2023-01-29T13:16:00;47.38;;;43.95;;
16354;SDS011;8287;51.644;8.494;2023-01-29T13:18:35;47.03;;;43.50;;
16354;SDS011;8287;51.644;8.494;2023-01-29T13:21:06;46.03;;;42.42;;
16354;SDS011;8287;51.644;8.494;2023-01-29T13:23:41;38.92;;;36.47;;
16354;SDS011;8287;51.644;8.494;2023-01-29T13:26:09;45.47;;;42.42;;
16354;SDS011;8287;51.644;8.494;2023-01-29T13:28:37;42.67;;;39.70;;
16354;SDS011;8287;51.644;8.494;2023-01-29T13:31:12;44.28;;;40.92;;
16354;SDS011;8287;51.644;8.494;2023-01-29T13:33:51;47.10;;;43.22;;
16354;SDS011;8287;51.644;8.494;2023-01-29T13:36:23;49.95;;;46.30;;
16354;SDS011;8287;51.644;8.494;2023-01-29T13:38:54;48.90;;;45.22;;
16354;SDS011;8287;51.644;8.494;2023-01-29T13:41:35;50.80;;;47.10;;
16354;SDS011;8287;51.644;8.494;2023-01-29T13:44:04;48.30;;;44.95;;
16354;SDS011;8287;51.644;8.494;2023-01-29T13:46:32;45.92;;;42.58;;
16354;SDS011;8287;51.644;8.494;2023-01-29T13:49:14;47.33;;;43.88;;
16354;SDS011;8287;51.644;8.494;2023-01-29T13:51:51;50.88;;;47.05;;
16354;SDS011;8287;51.644;8.494;2023-01-29T13:54:19;48.53;;;44.63;;
16354;SDS011;8287;51.644;8.494;2023-01-29T13:56:56;43.80;;;40.63;;
16354;SDS011;8287;51.644;8.494;2023-01-29T14:02:18;42.88;;;39.45;;
16354;SDS011;8287;51.644;8.494;2023-01-29T14:04:48;47.33;;;43.85;;
16354;SDS011;8287;51.644;8.494;2023-01-29T14:10:12;48.03;;;44.45;;
16354;SDS011;8287;51.644;8.494;2023-01-29T14:12:43;44.20;;;40.72;;
16354;SDS011;8287;51.644;8.494;2023-01-29T14:15:18;46.75;;;43.28;;
16354;SDS011;8287;51.644;8.494;2023-01-29T14:18:01;48.70;;;44.85;;
16354;SDS011;8287;51.644;8.494;2023-01-29T14:20:49;46.78;;;43.10;;
16354;SDS011;8287;51.644;8.494;2023-01-29T14:23:20;49.00;;;45.47;;
16354;SDS011;8287;51.644;8.494;2023-01-29T14:25:52;46.30;;;42.67;;
16354;SDS011;8287;51.644;8.494;2023-01-29T14:28:20;45.83;;;42.28;;
16354;SDS011;8287;51.644;8.494;2023-01-29T14:30:49;42.53;;;39.10;;
16354;SDS011;8287;51.644;8.494;2023-01-29T14:33:26;48.97;;;45.67;;
16354;SDS011;8287;51.644;8.494;2023-01-29T14:36:02;58.55;;;53.75;;
16354;SDS011;8287;51.644;8.494;2023-01-29T14:38:31;47.70;;;44.13;;
16354;SDS011;8287;51.644;8.494;2023-01-29T14:41:03;47.88;;;43.63;;
16354;SDS011;8287;51.644;8.494;2023-01-29T14:43:34;43.70;;;40.58;;
16354;SDS011;8287;51.644;8.494;2023-01-29T14:49:07;43.50;;;40.45;;
16354;SDS011;8287;51.644;8.494;2023-01-29T14:51:36;44.90;;;41.17;;
16354;SDS011;8287;51.644;8.494;2023-01-29T14:54:13;45.55;;;42.08;;
16354;SDS011;8287;51.644;8.494;2023-01-29T14:56:50;40.15;;;37.17;;
16354;SDS011;8287;51.644;8.494;2023-01-29T14:59:25;43.03;;;39.83;;
16354;SDS011;8287;51.644;8.494;2023-01-29T15:01:59;43.88;;;40.58;;
16354;SDS011;8287;51.644;8.494;2023-01-29T15:04:31;43.45;;;40.25;;
16354;SDS011;8287;51.644;8.494;2023-01-29T15:07:06;44.17;;;41.15;;
16354;SDS011;8287;51.644;8.494;2023-01-29T15:09:45;48.55;;;45.17;;
16354;SDS011;8287;51.644;8.494;2023-01-29T15:12:16;44.05;;;40.63;;